EDT,Max TemperatureF,Mean TemperatureF,Min TemperatureF,Max Dew PointF,MeanDew PointF,Min DewpointF,Max Humidity, Mean Humidity, Min Humidity, Max Sea Level PressureIn, Mean Sea Level PressureIn, Min Sea Level PressureIn, Max VisibilityMiles, Mean VisibilityMiles, Min VisibilityMiles, Max Wind SpeedMPH, Mean Wind SpeedMPH, Max Gust SpeedMPH,PrecipitationIn, CloudCover, Events, WindDirDegrees
2013-8-1,75,68,60,64,60,55,94,84,69,30.10,29.99,29.87,10,7,2,14,3,21,0.28,4,Rain,168
2013-8-2,78,71,64,64,62,57,94,80,47,29.93,29.87,29.82,10,7,0,9,5,18,0.20,5,Fog-Thunderstorm,302
2013-8-3,75,70,64,64,62,55,88,78,69,29.93,29.90,29.87,10,8,5,9,6,,0.00,6,Rain,262
2013-8-4,75,65,55,57,55,52,88,64,50,29.94,29.90,29.88,10,10,10,12,5,18,0.00,3,,321
2013-8-5,71,63,55,50,48,45,77,60,38,30.08,30.06,30.03,10,10,10,12,7,20,0.00,0,,340
2013-8-6,75,63,51,57,51,46,82,72,47,30.17,30.13,30.08,10,10,10,12,2,,0.00,1,,153
2013-8-7,73,64,55,63,57,52,88,79,57,30.20,30.17,30.12,10,10,10,13,4,18,0.00,4,,155
2013-8-8,78,73,68,70,65,32,88,83,22,30.12,30.09,30.06,10,8,1,12,8,17,0.00,7,,188
2013-8-9,78,74,71,73,69,54,94,87,50,30.06,29.94,29.84,10,6,1,16,7,22,0.10,7,Rain-Thunderstorm,211
2013-8-10,78,68,57,68,62,54,88,78,47,30.09,29.98,29.89,10,9,5,9,4,17,0.00,2,,328
2013-8-11,77,64,51,57,52,45,88,69,47,30.15,30.10,30.07,10,10,10,9,3,,0.00,0,,305
2013-8-12,78,69,60,61,57,55,88,74,47,30.08,30.04,29.98,10,10,4,8,1,,0.00,3,,202
2013-8-13,73,68,62,66,63,61,94,85,69,29.96,29.85,29.74,10,6,0,12,3,22,0.00,6,Fog-Rain,190
2013-8-14,69,62,55,61,52,48,94,70,49,30.05,29.87,29.77,10,10,8,12,5,23,0.00,2,,329
2013-8-15,71,60,50,52,47,45,82,68,43,30.15,30.10,30.06,10,10,10,7,3,,0.00,1,,331
2013-8-16,77,64,51,54,52,46,88,62,44,30.24,30.21,30.17,10,10,10,7,2,,0.00,1,,261
2013-8-17,77,65,53,61,54,48,88,75,44,30.32,30.28,30.25,10,10,10,8,1,,0.00,0,,20
2013-8-18,75,66,57,61,56,54,88,77,53,30.30,30.25,30.16,10,10,10,6,1,,0.00,1,,169
2013-8-19,75,67,59,63,58,54,88,78,61,30.16,30.11,30.06,10,10,9,6,1,,0.00,1,,304
2013-8-20,80,70,60,63,59,55,88,77,51,30.17,30.12,30.07,10,10,5,10,2,,0.00,0,Fog,324
2013-8-21,84,72,59,66,60,54,88,75,48,30.22,30.17,30.10,10,9,5,7,1,,0.00,0,,320
2013-8-22,75,68,62,70,64,50,88,85,46,30.11,30.03,29.92,8,5,1,7,2,,0.00,3,Fog-Rain-Thunderstorm,230
2013-8-23,78,70,62,66,59,50,88,71,47,30.15,30.00,29.91,10,9,2,14,7,21,0.00,3,,357
2013-8-24,75,65,55,54,48,45,82,63,41,30.39,30.29,30.16,10,10,10,12,8,16,0.00,0,,38
2013-8-25,78,64,51,57,51,46,88,69,38,30.41,30.34,30.25,10,10,10,7,1,,0.00,0,,264
2013-8-26,73,68,62,64,58,54,88,76,68,30.26,30.12,29.95,10,8,2,7,2,,0.16,5,Rain,226
2013-8-27,80,73,66,70,65,63,88,79,65,29.95,29.92,29.86,10,9,3,15,6,21,0.00,3,Rain,357
2013-8-28,84,73,62,70,63,59,94,81,58,29.96,29.93,29.90,10,8,1,9,2,,0.00,2,Thunderstorm,14
2013-8-29,73,68,64,64,63,57,94,84,69,30.08,30.02,29.95,10,6,0,9,4,,0.00,7,Fog-Rain,83
2013-8-30,80,71,62,66,62,57,88,81,61,30.08,29.99,29.90,10,8,1,6,1,,0.00,5,,222
2013-8-31,80,74,69,72,68,66,88,86,74,29.90,29.88,29.85,10,5,2,12,4,,0.06,4,,213